Time,TemperatureF,DewpointF,PressureIn,WindDirection,WindDirectionDegrees,WindSpeedMPH,WindSpeedGustMPH,Humidity,HourlyPrecipIn,Conditions,Clouds,dailyrainin,SolarRadiationWatts/m^2,SoftwareType,DateUTC
2013-09-17 00:02:00,87.0,55.0,-100.00,NE,52,6.0,12.0,34,0.00,,,0.00,1.000000,,2013-09-17 07:02:00,
2013-09-17 00:43:00,86.0,55.0,-100.00,ENE,57,7.0,13.0,35,0.00,,,0.00,1.000000,,2013-09-17 07:43:00,
2013-09-17 00:52:00,86.0,55.0,-100.00,ENE,57,7.0,13.0,35,0.00,,,0.00,1.000000,,2013-09-17 07:52:00,
2013-09-17 01:02:00,86.0,55.0,-100.00,ENE,57,7.0,13.0,35,0.00,,,0.00,1.000000,,2013-09-17 08:02:00,
2013-09-17 01:42:00,85.0,56.0,-100.00,NE,40,7.0,12.0,37,0.00,,,0.00,1.000000,,2013-09-17 08:42:00,
2013-09-17 01:52:00,85.0,56.0,-100.00,NE,40,7.0,12.0,37,0.00,,,0.00,1.000000,,2013-09-17 08:52:00,
2013-09-17 02:02:00,85.0,56.0,-100.00,NE,40,7.0,12.0,37,0.00,,,0.00,1.000000,,2013-09-17 09:02:00,
2013-09-17 02:43:00,84.0,57.0,-100.00,ENE,70,4.0,15.0,40,0.00,,,0.00,1.000000,,2013-09-17 09:43:00,
2013-09-17 02:53:00,84.0,57.0,-100.00,ENE,70,4.0,15.0,40,0.00,,,0.00,1.000000,,2013-09-17 09:53:00,
2013-09-17 03:03:00,84.0,57.0,-100.00,ENE,70,4.0,15.0,40,0.00,,,0.00,1.000000,,2013-09-17 10:03:00,
2013-09-17 03:42:00,83.0,55.0,-100.00,SE,125,2.0,10.0,39,0.00,,,0.00,1.000000,,2013-09-17 10:42:00,
2013-09-17 03:53:00,83.0,55.0,-100.00,SE,125,2.0,10.0,39,0.00,,,0.00,1.000000,,2013-09-17 10:53:00,
2013-09-17 04:03:00,83.0,55.0,-100.00,SE,125,2.0,10.0,39,0.00,,,0.00,1.000000,,2013-09-17 11:03:00,
2013-09-17 04:43:00,80.0,55.0,-100.00,NE,42,2.0,7.0,43,0.00,,,0.00,1.000000,,2013-09-17 11:43:00,
2013-09-17 04:52:00,80.0,55.0,-100.00,NE,42,2.0,7.0,43,0.00,,,0.00,1.000000,,2013-09-17 11:52:00,
2013-09-17 05:02:00,80.0,55.0,-100.00,NE,42,2.0,7.0,43,0.00,,,0.00,1.000000,,2013-09-17 12:02:00,
2013-09-17 05:42:00,79.0,56.0,-100.00,NE,55,3.0,6.0,46,0.00,,,0.00,1.000000,,2013-09-17 12:42:00,
2013-09-17 05:52:00,79.0,56.0,-100.00,NE,55,3.0,6.0,46,0.00,,,0.00,1.000000,,2013-09-17 12:52:00,
2013-09-17 06:02:00,79.0,56.0,-100.00,NE,55,3.0,6.0,46,0.00,,,0.00,1.000000,,2013-09-17 13:02:00,
2013-09-17 06:42:00,78.0,56.0,-100.00,ESE,105,2.0,5.0,47,0.00,,,0.00,1.000000,,2013-09-17 13:42:00,
2013-09-17 06:52:00,78.0,56.0,-100.00,ESE,105,2.0,5.0,47,0.00,,,0.00,1.000000,,2013-09-17 13:52:00,
2013-09-17 07:02:00,78.0,56.0,-100.00,ESE,105,2.0,5.0,47,0.00,,,0.00,1.000000,,2013-09-17 14:02:00,
2013-09-17 07:42:00,84.0,60.0,-100.00,ESE,111,3.0,6.0,44,0.00,,,0.00,51.000000,,2013-09-17 14:42:00,
2013-09-17 07:52:00,84.0,60.0,-100.00,ESE,111,3.0,6.0,44,0.00,,,0.00,51.000000,,2013-09-17 14:52:00,
2013-09-17 08:02:00,84.0,60.0,-100.00,ESE,111,3.0,6.0,44,0.00,,,0.00,51.000000,,2013-09-17 15:02:00,
2013-09-17 08:44:00,90.0,59.0,-100.00,SE,127,6.0,9.0,36,0.00,,,0.00,255.000000,,2013-09-17 15:44:00,
2013-09-17 08:53:00,90.0,59.0,-100.00,SE,127,6.0,9.0,36,0.00,,,0.00,255.000000,,2013-09-17 15:53:00,
2013-09-17 09:03:00,90.0,59.0,-100.00,SE,127,6.0,9.0,36,0.00,,,0.00,255.000000,,2013-09-17 16:03:00,
2013-09-17 09:42:00,93.0,60.0,-100.00,SE,131,8.0,14.0,33,0.00,,,0.00,459.000000,,2013-09-17 16:42:00,
2013-09-17 09:54:00,93.0,60.0,-100.00,SE,131,8.0,14.0,33,0.00,,,0.00,459.000000,,2013-09-17 16:54:00,
2013-09-17 10:03:00,93.0,60.0,-100.00,SE,131,8.0,14.0,33,0.00,,,0.00,459.000000,,2013-09-17 17:03:00,
2013-09-17 10:43:00,95.0,58.0,-100.00,SE,139,9.0,15.0,29,0.00,,,0.00,637.000000,,2013-09-17 17:43:00,
2013-09-17 10:53:00,95.0,58.0,-100.00,SE,139,9.0,15.0,29,0.00,,,0.00,637.000000,,2013-09-17 17:53:00,
2013-09-17 11:02:00,95.0,58.0,-100.00,SE,139,9.0,15.0,29,0.00,,,0.00,637.000000,,2013-09-17 18:02:00,
2013-09-17 11:42:00,98.0,57.0,-100.00,South,171,8.0,13.0,26,0.00,,,0.00,778.000000,,2013-09-17 18:42:00,
2013-09-17 11:52:00,98.0,57.0,-100.00,South,171,8.0,13.0,26,0.00,,,0.00,778.000000,,2013-09-17 18:52:00,
2013-09-17 12:02:00,98.0,57.0,-100.00,South,171,8.0,13.0,26,0.00,,,0.00,778.000000,,2013-09-17 19:02:00,
2013-09-17 12:42:00,100.0,58.0,-100.00,SSE,159,6.0,13.0,25,0.00,,,0.00,854.000000,,2013-09-17 19:42:00,
2013-09-17 12:52:00,100.0,58.0,-100.00,SSE,159,6.0,13.0,25,0.00,,,0.00,854.000000,,2013-09-17 19:52:00,
2013-09-17 13:02:00,100.0,58.0,-100.00,SSE,159,6.0,13.0,25,0.00,,,0.00,854.000000,,2013-09-17 20:02:00,
2013-09-17 13:42:00,101.0,55.0,-100.00,SSE,157,5.0,15.0,22,0.00,,,0.00,877.000000,,2013-09-17 20:42:00,
2013-09-17 13:52:00,101.0,55.0,-100.00,SSE,157,5.0,15.0,22,0.00,,,0.00,877.000000,,2013-09-17 20:52:00,
2013-09-17 14:01:00,101.0,55.0,-100.00,SSE,157,5.0,15.0,22,0.00,,,0.00,877.000000,,2013-09-17 21:01:00,
2013-09-17 14:44:00,101.0,54.0,-100.00,ENE,70,6.0,10.0,21,0.00,,,0.00,862.000000,,2013-09-17 21:44:00,
2013-09-17 14:54:00,101.0,54.0,-100.00,ENE,70,6.0,10.0,21,0.00,,,0.00,862.000000,,2013-09-17 21:54:00,
2013-09-17 15:04:00,101.0,54.0,-100.00,ENE,70,6.0,10.0,21,0.00,,,0.00,862.000000,,2013-09-17 22:04:00,
2013-09-17 15:44:00,102.0,55.0,-100.00,SE,134,4.0,12.0,21,0.00,,,0.00,720.000000,,2013-09-17 22:44:00,
2013-09-17 15:53:00,102.0,55.0,-100.00,SE,134,4.0,12.0,21,0.00,,,0.00,720.000000,,2013-09-17 22:53:00,
2013-09-17 16:03:00,102.0,55.0,-100.00,SE,134,4.0,12.0,21,0.00,,,0.00,720.000000,,2013-09-17 23:03:00,
2013-09-17 16:42:00,101.0,52.0,-100.00,West,270,5.0,11.0,20,0.00,,,0.00,413.000000,,2013-09-17 23:42:00,
2013-09-17 16:52:00,101.0,52.0,-100.00,West,270,5.0,11.0,20,0.00,,,0.00,413.000000,,2013-09-17 23:52:00,
2013-09-17 17:02:00,101.0,52.0,-100.00,West,270,5.0,11.0,20,0.00,,,0.00,413.000000,,2013-09-18 00:02:00,
2013-09-17 17:42:00,98.0,50.0,-100.00,SSE,159,5.0,10.0,20,0.00,,,0.00,303.000000,,2013-09-18 00:42:00,
2013-09-17 17:52:00,98.0,50.0,-100.00,SSE,159,5.0,10.0,20,0.00,,,0.00,303.000000,,2013-09-18 00:52:00,
2013-09-17 18:01:00,98.0,50.0,-100.00,SSE,159,5.0,10.0,20,0.00,,,0.00,303.000000,,2013-09-18 01:01:00,
2013-09-17 18:42:00,96.0,48.0,-100.00,ESE,121,3.0,8.0,20,0.00,,,-99.99,77.000000,,2013-09-18 01:42:00,
2013-09-17 18:52:00,96.0,48.0,-100.00,ESE,121,3.0,8.0,20,0.00,,,-99.99,77.000000,,2013-09-18 01:52:00,
2013-09-17 19:03:00,96.0,48.0,-100.00,ESE,121,3.0,8.0,20,0.00,,,-99.99,77.000000,,2013-09-18 02:03:00,
2013-09-17 19:43:00,94.0,53.0,-100.00,NE,52,6.0,10.0,25,0.00,,,0.00,4.000000,,2013-09-18 02:43:00,
2013-09-17 19:52:00,94.0,53.0,-100.00,NE,52,6.0,10.0,25,0.00,,,0.00,4.000000,,2013-09-18 02:52:00,
2013-09-17 20:02:00,94.0,53.0,-100.00,NE,52,6.0,10.0,25,0.00,,,0.00,4.000000,,2013-09-18 03:02:00,
2013-09-17 20:44:00,92.0,52.0,-100.00,ESE,109,4.0,8.0,26,0.00,,,0.00,1.000000,,2013-09-18 03:44:00,
2013-09-17 20:55:00,92.0,52.0,-100.00,ESE,109,4.0,8.0,26,0.00,,,0.00,1.000000,,2013-09-18 03:55:00,
2013-09-17 21:04:00,92.0,52.0,-100.00,ESE,109,4.0,8.0,26,0.00,,,0.00,1.000000,,2013-09-18 04:04:00,
2013-09-17 21:44:00,91.0,52.0,-100.00,ENE,75,3.0,8.0,27,0.00,,,0.00,1.000000,,2013-09-18 04:44:00,
2013-09-17 21:54:00,91.0,52.0,-100.00,ENE,75,3.0,8.0,27,0.00,,,0.00,1.000000,,2013-09-18 04:54:00,
2013-09-17 22:03:00,91.0,52.0,-100.00,ENE,75,3.0,8.0,27,0.00,,,0.00,1.000000,,2013-09-18 05:03:00,
2013-09-17 22:43:00,90.0,52.0,-100.00,South,187,3.0,10.0,28,0.00,,,0.00,1.000000,,2013-09-18 05:43:00,
2013-09-17 22:53:00,90.0,52.0,-100.00,South,187,3.0,10.0,28,0.00,,,0.00,1.000000,,2013-09-18 05:53:00,
2013-09-17 23:02:00,90.0,52.0,-100.00,South,187,3.0,10.0,28,0.00,,,0.00,1.000000,,2013-09-18 06:02:00,
2013-09-17 23:42:00,88.0,51.0,-100.00,WNW,297,5.0,10.0,28,0.00,,,0.00,1.000000,,2013-09-18 06:42:00,
2013-09-17 23:52:00,88.0,51.0,-100.00,WNW,297,5.0,10.0,28,0.00,,,0.00,1.000000,,2013-09-18 06:52:00,